Whale Point, California Weather observations

Data are for observation ending at time listed.
 Day   Time    Ave.   Ave.  Ave.  Vector   Max.   Stn.    Total    Solar   Ave.  
  of    of     Air    Rel.  Wind   Wind    Wind   Baro.  Precip.   Rad.    Soil  
Year   Day     Temp.  Hum.  Speed  Dir.    Gust   Pres.                    Temp. 
2016   (PST)    F      %     mph   deg.    mph     mb.     in.     W/m2     F   
------------------------------------------------------------------------------
 207    8:40   51.0    93    3.7   197      5.6   993.9    0.00     451    73.7
 207    8:50   51.7    93    2.8   187      4.7   993.9    0.00     589    73.7
 207    9:00   52.7    93    2.5   190      4.6   993.9    0.00     667    73.7
 207    9:10   52.8    90    3.2   193      5.0   993.9    0.00     698    73.6
 207    9:20   52.7    90    2.8   198      4.7   993.9    0.00     734    73.6
 207    9:30   52.5    90    3.7   204      5.5   994.2    0.00     695    73.6
 207    9:40   52.7    90    3.1   202      6.0   994.2    0.00     736    73.6
 207    9:50   53.3    89    3.1   199      6.0   994.2    0.00     837    73.6
 207   10:00   53.2    89    4.1   205      6.5   994.2    0.00     839    73.7
 207   10:10   53.6    89    2.7   196      6.1   994.2    0.00     883    73.7
 207   10:20   55.1    86    2.9   189      5.0   994.2    0.00     943    73.7
 207   10:30   55.1    84    3.2   195      5.0   994.2    0.00     962    73.8
 207   10:40   55.7    83    3.1   195      4.6   994.2    0.00     982    73.8
 207   10:50   57.1    80    3.2   191      5.9   994.2    0.00     998    73.9
 207   11:00   57.5    79    3.0   192      4.6   994.2    0.00    1010    74.0
 207   11:10   57.4    78    3.5   195      5.6   994.2    0.00    1025    74.0
 207   11:20   57.5    78    2.7   198      5.5   994.2    0.00    1032    74.1
 207   11:30   57.4    78    3.7   195      6.3   994.2    0.00    1041    74.2
 207   11:40   56.5    80    4.2   206      6.7   994.6    0.00    1044    74.3
 207   11:50   56.4    81    3.8   202      7.0   994.6    0.00    1053    74.4
 207   12:00   57.7    78    3.3   206      6.1   994.6    0.00    1056    74.5
 207   12:10   58.1    77    3.5   202      5.3   994.6    0.00    1053    74.6
 207   12:20   58.2    77    3.9   202      5.6   994.2    0.00    1052    74.7
 207   12:30   58.6    76    4.0   197      6.4   994.2    0.00    1052    74.9
 207   12:40   58.6    75    3.7   205      5.3   994.2    0.00    1046    75.0
 207   12:50   58.5    76    4.0   209      5.9   994.2    0.00    1038    75.2
 207   13:00   58.8    75    3.9   200      6.7   994.2    0.00    1026    75.4
 207   13:10   58.9    75    3.6   200      6.0   994.2    0.00    1022    75.6
 207   13:20   59.1    74    3.6   204      5.3   994.2    0.00    1013    75.8
 207   13:30   59.7    73    3.9   198      5.9   994.2    0.00    1001    76.0
 207   13:40   58.1    76    4.5   199      6.4   994.2    0.00     979    76.2
 207   13:50   58.2    76    4.0   202      6.4   994.2    0.00     974    76.5
 207   14:00   59.9    73    3.6   201      5.3   993.9    0.00     959    76.7
 207   14:10   61.1    70    3.5   197      6.2   993.9    0.00     941    76.9
 207   14:20   62.3    68    2.8   185      5.2   993.9    0.00     924    77.2
 207   14:30   64.3    64    2.6   191      4.5   993.9    0.00     905    77.4
 207   14:40   64.8    62    3.3   183      5.0   993.6    0.00     882    77.7
 207   14:50   65.3    61    3.0   181      5.4   993.6    0.00     856    78.0
 207   15:00   65.4    61    3.2   187      4.9   993.6    0.00     830    78.2
 207   15:10   62.5    66    4.2   190      6.3   993.2    0.00     802    78.4
 207   15:20   60.3    72    3.9   192      6.1   993.2    0.00     772    78.7
 207   15:30   61.1    70    3.2   189      5.0   993.2    0.00     745    79.0
 207   15:40   61.8    69    3.2   192      6.1   992.9    0.00     716    79.2
 207   15:50   61.5    70    3.1   189      5.1   992.9    0.00     685    79.5
 207   16:00   62.4    68    2.4   190      4.9   992.9    0.00     654    79.7
 207   16:10   62.6    68    3.1   207      5.6   992.9    0.00     622    80.0
 207   16:20   62.5    68    3.3   198      5.6   992.9    0.00     588    80.2
 207   16:30   61.7    69    3.8   205      5.9   992.9    0.00     555    80.4
 207   16:40   60.6    72    3.9   196      6.1   992.6    0.00     445    80.7
 207   16:50   59.9    74    2.8   199      4.2   992.6    0.00      56    80.9
 207   17:00   59.9    74    3.4   198      4.9   992.6    0.00      56    81.1
 207   17:10   59.9    74    3.2   195      4.9   992.6    0.00     322    81.2
 207   17:20   60.2    74    3.1   212      5.0   992.6    0.00     373    81.4
 207   17:30   58.7    77    3.6   229      5.9   992.6    0.00     336    81.6
 207   17:40   58.1    79    2.6   213      4.8   992.6    0.00     295    81.8
 207   17:50   57.6    80    2.6   213      3.9   992.2    0.00     245    81.9
 207   18:00   57.1    82    1.8   219      3.3   992.2    0.00     214    82.0
 207   18:10   56.8    82    1.7   190      3.1   992.2    0.00     183    82.2
 207   18:20   57.3    81    1.8   187      2.9   992.2    0.00     153    82.3
 207   18:30   57.0    81    1.8   187      2.6   992.2    0.00     105    82.4
 207   18:40   55.8    83    1.6   168      3.1   992.2    0.00      72    82.5
 207   18:50   55.7    83    0.5   222      1.9   992.2    0.00      69    82.5
 207   19:00   54.6    84    0.7   263      1.8   991.9    0.00      34    82.6
 207   19:10   53.2    88    1.4   177      2.7   991.9    0.00      11    82.7
 207   19:20   52.2    90    1.3   184      2.0   991.9    0.00       5    82.7
 207   19:30   51.6    92    0.8   179      2.2   991.9    0.00       2    82.7
 207   19:40   51.4    93    0.1   246      1.2   991.9    0.00       0    82.7
 207   19:50   51.2    93    0.2   189      0.9   991.9    0.00       0    82.7
 207   20:00   51.1    94    0.7   180      1.6   991.9    0.00       0    82.6
 207   20:10   51.0    94    0.9   167      2.0   991.9    0.00       0    82.6
 207   20:20   50.9    94    1.9   157      3.2   991.9    0.00       0    82.5
 207   20:30   50.8    94    0.9   185      2.0   991.9    0.00       0    82.4
 207   20:40   50.7    94    0.8   352      2.0   992.2    0.00       0    82.3
 207   20:50   50.3    95    0.5   212      1.6   992.2    0.00       0    82.2
 207   21:00   50.3    95    0.5   340      1.5   992.2    0.00       0    82.1
 207   21:10   50.0    95    0.0   156      0.7   992.2    0.00       0    82.0
 207   21:20   50.3    95    0.6   189      1.9   992.2    0.00       0    81.9
 207   21:30   50.2    95    0.6     5      1.3   992.2    0.00       0    81.8
 207   21:40   49.9    95    0.4   162      2.0   992.2    0.00       0    81.6
 207   21:50   49.9    96    0.5   180      1.8   992.2    0.00       0    81.5
 207   22:00   50.0    96    0.3   196      1.5   991.9    0.00       0    81.4
 207   22:10   49.9    96    0.0   130      0.1   991.9    0.00       0    81.2
 207   22:20   49.5    96    0.2    85      0.9   991.9    0.00       0    81.1
 207   22:30   49.6    96    0.3   154      0.9   991.9    0.00       0    80.9
 207   22:40   49.5    96    0.2   172      0.9   991.9    0.00       0    80.8
 207   22:50   49.4    96    0.2   189      1.6   991.9    0.00       0    80.7
 207   23:00   49.0    96    1.2    13      2.1   991.9    0.00       0    80.5
 207   23:10   48.8    96    0.3    34      1.9   991.9    0.00       0    80.4
 207   23:20   49.2    96    0.7   171      2.2   991.5    0.00       0    80.2
 207   23:30   49.1    96    0.3     9      0.9   991.9    0.00       0    80.1
 207   23:40   48.7    96    0.3    14      1.2   991.9    0.00       0    79.9
 207   23:50   48.6    96    0.4    20      2.0   991.9    0.00       0    79.8
 208    0:00   48.7    96    0.5    13      1.5   991.9    0.00       0    79.6
 208    0:10   48.8    96    0.8    23      1.7   991.9    0.00       0    79.5
 208    0:20   48.8    96    0.1   188      1.2   991.9    0.00       0    79.4
 208    0:30   49.0    96    0.2   152      1.7   991.9    0.00       0    79.2
 208    0:40   49.3    96    0.3   176      1.5   991.9    0.00       0    79.1
 208    0:50   49.4    96    0.3   199      2.2   991.9    0.00       0    78.9
 208    1:00   49.2    96    0.0     9      0.5   991.5    0.00       0    78.8
 208    1:10   48.9    96    0.3   186      1.6   991.5    0.00       0    78.7
 208    1:20   49.0    96    1.6   197      3.4   991.5    0.00       0    78.5
 208    1:30   49.0    96    1.0   230      2.9   991.5    0.00       0    78.4
 208    1:40   48.8    96    0.2    29      1.1   991.5    0.00       0    78.2
 208    1:50   48.7    96    0.1   179      1.5   991.5    0.00       0    78.1
 208    2:00   48.4    96    0.5    32      1.8   991.2    0.00       0    78.0
 208    2:10   48.1    96    0.6   129      2.2   991.2    0.00       0    77.9
 208    2:20   48.5    96    1.3   170      3.2   991.5    0.00       0    77.8
 208    2:30   48.3    96    0.3   192      2.2   991.5    0.00       0    77.6
 208    2:40   48.0    96    0.3   192      2.3   991.5    0.00       0    77.5
 208    2:50   48.1    96    0.3   199      2.3   991.5    0.00       0    77.4
 208    3:00   48.0    96    0.5   195      2.3   991.5    0.00       0    77.3
 208    3:10   48.1    96    0.4   192      1.8   991.5    0.00       0    77.2
 208    3:20   47.6    96    0.0     0      0.0   991.2    0.00       0    77.1
 208    3:30   47.3    96    0.3    16      1.1   991.2    0.00       0    76.9
 208    3:40   46.8    96    0.0   175      0.7   991.2    0.00       0    76.8
 208    3:50   47.4    96    0.8   195      3.1   991.2    0.00       0    76.7
 208    4:00   47.4    96    0.2   212      1.0   991.2    0.00       0    76.6
 208    4:10   47.2    96    0.7    26      1.4   991.2    0.00       0    76.5
 208    4:20   46.9    96    0.5    20      2.5   991.2    0.00       0    76.4
 208    4:30   47.2    96    1.1   240      3.7   991.5    0.00       0    76.3
 208    4:40   47.0    96    0.1    25      0.7   991.5    0.00       0    76.2
 208    4:50   46.8    96    0.0     0      0.0   991.5    0.00       0    76.1
 208    5:00   46.7    96    0.0     0      0.0   991.5    0.00       1    76.0
 208    5:10   46.6    96    0.3   164      1.3   991.9    0.00       2    75.9
 208    5:20   46.6    96    0.9   168      1.9   991.9    0.00       5    75.8
 208    5:30   46.9    97    0.2   216      1.2   992.2    0.00       7    75.7
 208    5:40   46.7    97    0.9    20      2.0   992.2    0.00      10    75.6
 208    5:50   46.3    97    1.2    19      2.2   992.2    0.00      16    75.5
 208    6:00   46.4    97    1.3   160      2.3   991.9    0.00      22    75.4
 208    6:10   46.7    97    0.8    12      2.1   991.9    0.00      25    75.3
 208    6:20   46.8    97    2.3   188      4.0   992.2    0.00      25    75.2
 208    6:30   46.9    97    0.6   214      2.6   992.2    0.00      29    75.1
 208    6:40   46.9    97    0.0     0      0.0   992.2    0.00      32    74.9
 208    6:50   47.2    97    1.1   203      2.6   992.2    0.00      72    74.9
 208    7:00   47.5    97    1.2   162      2.1   992.6    0.00      99    74.8
 208    7:10   48.0    97    0.1   138      1.2   992.6    0.00     186    74.7
 208    7:20   49.4    97    0.7   186      1.7   992.2    0.00     393    74.5
 208    7:30   49.5    96    1.8   186      3.9   992.6    0.00     372    74.4
 208    7:40   49.3    96    1.2   197      2.3   992.6    0.00     395    74.3
 208    7:50   49.7    96    1.1   215      2.1   992.6    0.00     491    74.2
 208    8:00   50.2    96    1.3   198      2.7   992.6    0.00     497    74.1
 208    8:10   49.7    96    2.7   198      3.9   992.6    0.00     438    74.1
 208    8:20   49.9    96    2.1   195      4.0   992.9    0.00     465    74.0
 208    8:30   50.0    96    3.2   205      5.3   992.9    0.00     454    74.0

Return to Whale Point graphs page.


Western Regional Climate Center,wrcc@dri.edu